createdAt,value
2022-09-25T00:00:09.105Z,359
2022-09-25T00:01:08.828Z,363
2022-09-25T00:03:08.120Z,351
2022-09-25T00:04:08.254Z,359
2022-09-25T00:05:08.725Z,363
2022-09-25T00:06:08.665Z,355
2022-09-25T00:07:08.779Z,361
2022-09-25T00:08:08.505Z,360
2022-09-25T00:09:10.175Z,358
2022-09-25T00:10:16.700Z,355
2022-09-25T00:11:08.471Z,349
2022-09-25T00:12:08.212Z,345
2022-09-25T00:13:08.370Z,357
2022-09-25T00:14:07.953Z,363
2022-09-25T00:15:09.075Z,349
2022-09-25T00:16:08.341Z,345
2022-09-25T00:17:08.332Z,361
2022-09-25T00:18:08.299Z,355
2022-09-25T00:19:08.239Z,352
2022-09-25T00:20:08.331Z,347
2022-09-25T00:21:08.113Z,349
2022-09-25T00:22:08.671Z,348
2022-09-25T00:23:08.249Z,353
2022-09-25T00:24:07.746Z,362
2022-09-25T00:25:08.326Z,369
2022-09-25T00:26:07.983Z,350
2022-09-25T00:27:09.213Z,348
2022-09-25T00:29:08.347Z,345
2022-09-25T00:31:08.101Z,354
2022-09-25T00:32:07.754Z,364
2022-09-25T00:33:08.497Z,358
2022-09-25T00:34:08.023Z,361
2022-09-25T00:35:08.644Z,354
2022-09-25T00:37:08.421Z,355
2022-09-25T00:38:07.906Z,352
2022-09-25T00:39:08.585Z,355
2022-09-25T00:40:08.067Z,352
2022-09-25T00:41:07.805Z,357
2022-09-25T00:42:08.215Z,370
2022-09-25T00:43:07.823Z,366
2022-09-25T00:44:08.209Z,348
2022-09-25T00:45:08.754Z,346
2022-09-25T00:46:08.395Z,351
2022-09-25T00:47:08.305Z,352
2022-09-25T00:48:07.716Z,356
2022-09-25T00:49:08.110Z,361
2022-09-25T00:51:08.318Z,352
2022-09-25T00:52:08.348Z,349
2022-09-25T00:53:08.758Z,354
2022-09-25T00:54:08.229Z,359
2022-09-25T00:55:08.081Z,349
2022-09-25T00:56:08.560Z,352
2022-09-25T00:57:07.830Z,360
2022-09-25T00:58:08.167Z,361
2022-09-25T00:59:08.392Z,355
2022-09-25T01:00:08.716Z,360
2022-09-25T01:01:08.412Z,352
2022-09-25T01:03:08.295Z,359
2022-09-25T01:04:08.450Z,369
2022-09-25T01:05:07.719Z,356
2022-09-25T01:06:08.011Z,355
2022-09-25T01:07:08.460Z,360
2022-09-25T01:08:07.753Z,362
2022-09-25T01:09:07.894Z,360
2022-09-25T01:10:08.309Z,364
2022-09-25T01:11:07.907Z,361
2022-09-25T01:12:08.205Z,360
2022-09-25T01:13:08.442Z,358
2022-09-25T01:14:08.060Z,360
2022-09-25T01:15:08.792Z,365
2022-09-25T01:16:08.491Z,363
2022-09-25T01:17:08.044Z,361
2022-09-25T01:18:08.658Z,356
2022-09-25T01:19:07.763Z,357
2022-09-25T01:20:07.775Z,356
2022-09-25T01:21:08.338Z,354
2022-09-25T01:22:08.312Z,343
2022-09-25T01:23:08.217Z,363
2022-09-25T01:24:08.141Z,337
2022-09-25T01:25:08.543Z,344
2022-09-25T01:26:07.574Z,356
2022-09-25T01:27:08.174Z,351
2022-09-25T01:28:08.233Z,355
2022-09-25T01:29:08.269Z,357
2022-09-25T01:30:08.730Z,354
2022-09-25T01:31:08.330Z,356
2022-09-25T01:32:07.922Z,354
2022-09-25T01:33:08.230Z,351
2022-09-25T01:34:08.269Z,344
2022-09-25T01:35:08.477Z,347
2022-09-25T01:36:07.783Z,352
2022-09-25T01:37:07.938Z,355
2022-09-25T01:38:08.211Z,360
2022-09-25T01:39:08.359Z,365
2022-09-25T01:40:08.567Z,371
2022-09-25T01:41:07.893Z,367
2022-09-25T01:42:08.256Z,375
2022-09-25T01:43:08.266Z,352
2022-09-25T01:44:08.445Z,363
2022-09-25T01:45:08.048Z,367
2022-09-25T01:46:08.402Z,363
2022-09-25T01:47:08.326Z,365
2022-09-25T01:48:08.556Z,366
2022-09-25T01:49:08.515Z,360
2022-09-25T01:50:08.673Z,370
2022-09-25T01:51:08.164Z,372
2022-09-25T01:52:08.446Z,374
2022-09-25T01:53:08.176Z,375
2022-09-25T01:54:07.538Z,368
2022-09-25T01:55:07.385Z,362
2022-09-25T01:56:07.736Z,361
2022-09-25T01:57:07.791Z,366
2022-09-25T01:58:07.950Z,370
2022-09-25T01:59:08.223Z,357
2022-09-25T02:00:08.993Z,354
2022-09-25T02:01:07.896Z,373
2022-09-25T02:02:08.341Z,349
2022-09-25T02:03:08.398Z,353
2022-09-25T02:04:08.110Z,354
2022-09-25T02:05:07.627Z,367
2022-09-25T02:06:07.752Z,360
2022-09-25T02:07:07.777Z,364
2022-09-25T02:08:07.878Z,367
2022-09-25T02:09:08.508Z,358
2022-09-25T02:10:08.417Z,357
2022-09-25T02:11:07.465Z,363
2022-09-25T02:12:08.432Z,369
2022-09-25T02:13:08.777Z,362
2022-09-25T02:14:07.860Z,358
2022-09-25T02:15:07.988Z,348
2022-09-25T02:16:08.353Z,358
2022-09-25T02:17:07.716Z,362
2022-09-25T02:18:08.080Z,358
2022-09-25T02:19:08.522Z,347
2022-09-25T02:20:07.974Z,386
2022-09-25T02:21:08.272Z,352
2022-09-25T02:22:08.492Z,339
2022-09-25T02:23:08.610Z,347
2022-09-25T02:24:07.817Z,356
2022-09-25T02:26:08.529Z,361
2022-09-25T02:27:07.725Z,371
2022-09-25T02:28:07.758Z,373
2022-09-25T02:29:08.027Z,376
2022-09-25T02:31:07.965Z,367
2022-09-25T02:33:07.555Z,355
2022-09-25T02:34:14.471Z,354
2022-09-25T02:35:07.632Z,356
2022-09-25T02:36:07.961Z,362
2022-09-25T02:37:08.439Z,356
2022-09-25T02:38:07.599Z,355
2022-09-25T02:39:07.928Z,364
2022-09-25T02:40:08.843Z,355
2022-09-25T02:42:07.717Z,349
2022-09-25T02:43:07.862Z,353
2022-09-25T02:44:08.173Z,361
2022-09-25T02:45:08.500Z,372
2022-09-25T02:46:07.645Z,363
2022-09-25T02:47:11.508Z,359
2022-09-25T02:48:07.631Z,365
2022-09-25T02:49:07.606Z,368
2022-09-25T02:50:07.769Z,367
2022-09-25T02:52:08.462Z,368
2022-09-25T02:53:07.678Z,374
2022-09-25T02:54:08.168Z,371
2022-09-25T02:56:08.367Z,370
2022-09-25T02:57:08.318Z,369
2022-09-25T02:58:08.354Z,368
2022-09-25T02:59:08.227Z,395
2022-09-25T03:00:09.089Z,356
2022-09-25T03:01:08.329Z,355
2022-09-25T03:02:08.124Z,359
2022-09-25T03:03:07.705Z,372
2022-09-25T03:05:08.647Z,365
2022-09-25T03:06:08.181Z,371
2022-09-25T03:07:08.237Z,366
2022-09-25T03:08:08.658Z,356
2022-09-25T03:09:08.136Z,357
2022-09-25T03:10:08.502Z,352
2022-09-25T03:11:07.646Z,347
2022-09-25T03:12:07.653Z,341
2022-09-25T03:13:07.841Z,348
2022-09-25T03:14:08.300Z,367
2022-09-25T03:15:08.257Z,363
2022-09-25T03:16:08.001Z,366
2022-09-25T03:17:08.529Z,348
2022-09-25T03:18:07.970Z,380
2022-09-25T03:19:08.096Z,354
2022-09-25T03:20:08.450Z,355
2022-09-25T03:21:07.672Z,346
2022-09-25T03:22:07.974Z,357
2022-09-25T03:23:08.819Z,362
2022-09-25T03:24:08.510Z,374
2022-09-25T03:25:08.013Z,367
2022-09-25T03:26:07.688Z,352
2022-09-25T03:28:08.097Z,355
2022-09-25T03:29:08.500Z,357
2022-09-25T03:30:08.144Z,351
2022-09-25T03:31:08.108Z,354
2022-09-25T03:32:07.736Z,358
2022-09-25T03:33:08.102Z,352
2022-09-25T03:34:08.342Z,351
2022-09-25T03:35:07.657Z,350
2022-09-25T03:36:07.666Z,337
2022-09-25T03:37:08.334Z,374
2022-09-25T03:38:08.708Z,366
2022-09-25T03:39:08.170Z,352
2022-09-25T03:40:08.579Z,350
2022-09-25T03:41:07.970Z,352
2022-09-25T03:42:08.305Z,356
2022-09-25T03:44:08.094Z,352
2022-09-25T03:45:08.242Z,362
2022-09-25T03:46:07.492Z,361
2022-09-25T03:47:07.841Z,357
2022-09-25T03:48:08.118Z,347
2022-09-25T03:49:08.185Z,350
2022-09-25T03:50:08.194Z,352
2022-09-25T03:51:08.512Z,350
2022-09-25T03:52:07.893Z,353
2022-09-25T03:53:08.349Z,348
2022-09-25T03:54:07.720Z,353
2022-09-25T03:55:07.884Z,348
2022-09-25T03:56:08.480Z,375
2022-09-25T03:57:07.769Z,357
2022-09-25T03:58:08.365Z,356
2022-09-25T04:00:07.997Z,354
2022-09-25T04:02:08.249Z,361
2022-09-25T04:03:08.016Z,354
2022-09-25T04:04:08.485Z,347
2022-09-25T04:05:08.301Z,350
2022-09-25T04:06:07.898Z,354
2022-09-25T04:07:08.159Z,353
2022-09-25T04:08:08.579Z,361
2022-09-25T04:09:08.002Z,356
2022-09-25T04:10:08.355Z,352
2022-09-25T04:11:08.526Z,347
2022-09-25T04:12:08.115Z,346
2022-09-25T04:13:08.599Z,351
2022-09-25T04:14:07.900Z,340
2022-09-25T04:15:08.568Z,361
2022-09-25T04:16:08.298Z,350
2022-09-25T04:17:08.128Z,365
2022-09-25T04:19:08.563Z,355
2022-09-25T04:20:08.551Z,342
2022-09-25T04:21:08.116Z,346
2022-09-25T04:22:08.340Z,342
2022-09-25T04:23:07.615Z,350
2022-09-25T04:24:07.926Z,359
2022-09-25T04:25:08.965Z,354
2022-09-25T04:26:07.981Z,358
2022-09-25T04:27:08.897Z,356
2022-09-25T04:28:08.214Z,352
2022-09-25T04:29:08.496Z,343
2022-09-25T04:30:07.953Z,354
2022-09-25T04:31:08.150Z,347
2022-09-25T04:32:07.685Z,341
2022-09-25T04:33:09.052Z,350
2022-09-25T04:34:08.110Z,367
2022-09-25T04:35:08.547Z,355
2022-09-25T04:36:08.382Z,345
2022-09-25T04:37:07.672Z,348
2022-09-25T04:39:08.485Z,350
2022-09-25T04:40:08.189Z,364
2022-09-25T04:42:08.417Z,362
2022-09-25T04:43:07.863Z,365
2022-09-25T04:44:08.266Z,362
2022-09-25T04:45:08.995Z,347
2022-09-25T04:46:08.700Z,359
2022-09-25T04:47:08.555Z,355
2022-09-25T04:48:08.077Z,346
2022-09-25T04:49:08.300Z,347
2022-09-25T04:50:08.681Z,351
2022-09-25T04:51:08.077Z,363
2022-09-25T04:52:12.775Z,362
2022-09-25T04:53:08.591Z,351
2022-09-25T04:54:08.557Z,365
2022-09-25T04:55:08.444Z,355
2022-09-25T04:56:13.874Z,359
2022-09-25T04:58:08.190Z,357
2022-09-25T04:59:08.509Z,360
2022-09-25T05:00:08.542Z,356
2022-09-25T05:01:08.521Z,352
2022-09-25T05:02:08.582Z,338
2022-09-25T05:03:08.580Z,331
2022-09-25T05:04:08.901Z,343
2022-09-25T05:05:08.080Z,349
2022-09-25T05:06:07.733Z,355
2022-09-25T05:07:08.597Z,352
2022-09-25T05:08:08.181Z,346
2022-09-25T05:09:08.619Z,348
2022-09-25T05:10:08.220Z,342
2022-09-25T05:11:08.523Z,353
2022-09-25T05:12:08.243Z,350
2022-09-25T05:13:07.839Z,353
2022-09-25T05:15:07.842Z,349
2022-09-25T05:16:08.818Z,337
2022-09-25T05:17:08.681Z,344
2022-09-25T05:18:08.458Z,354
2022-09-25T05:19:08.219Z,352
2022-09-25T05:20:09.078Z,347
2022-09-25T05:21:08.005Z,346
2022-09-25T05:22:08.514Z,344
2022-09-25T05:23:08.267Z,341
2022-09-25T05:24:08.207Z,344
2022-09-25T05:25:08.494Z,353
2022-09-25T05:26:08.051Z,354
2022-09-25T05:28:08.263Z,356
2022-09-25T05:29:07.993Z,351
2022-09-25T05:30:09.356Z,343
2022-09-25T05:31:08.460Z,339
2022-09-25T05:32:08.321Z,342
2022-09-25T05:33:08.237Z,359
2022-09-25T05:34:07.923Z,344
2022-09-25T05:35:08.676Z,337
2022-09-25T05:36:08.615Z,342
2022-09-25T05:37:08.674Z,352
2022-09-25T05:38:08.344Z,357
2022-09-25T05:39:10.952Z,354
2022-09-25T05:40:08.244Z,359
2022-09-25T05:41:07.723Z,357
2022-09-25T05:42:08.411Z,355
2022-09-25T05:43:08.146Z,361
2022-09-25T05:44:08.432Z,347
2022-09-25T05:45:08.598Z,359
2022-09-25T05:46:08.584Z,353
2022-09-25T05:47:08.550Z,360
2022-09-25T05:48:08.540Z,349
2022-09-25T05:51:08.686Z,352
2022-09-25T05:52:09.118Z,348
2022-09-25T05:53:08.544Z,339
2022-09-25T05:54:08.726Z,349
2022-09-25T05:55:08.585Z,351
2022-09-25T05:56:08.755Z,338
2022-09-25T05:57:08.903Z,343
2022-09-25T05:58:09.270Z,350
2022-09-25T05:59:08.480Z,352
2022-09-25T06:00:08.772Z,354
2022-09-25T06:02:09.543Z,347
2022-09-25T06:03:09.552Z,348
2022-09-25T06:04:08.349Z,363
2022-09-25T06:05:09.269Z,362
2022-09-25T06:06:09.495Z,352
2022-09-25T06:07:09.082Z,356
2022-09-25T06:08:08.428Z,351
2022-09-25T06:09:08.574Z,332
2022-09-25T06:10:08.994Z,348
2022-09-25T06:11:09.009Z,342
2022-09-25T06:12:08.527Z,359
2022-09-25T06:13:09.011Z,350
2022-09-25T06:14:08.347Z,360
2022-09-25T06:15:08.588Z,359
2022-09-25T06:16:08.868Z,363
2022-09-25T06:17:08.473Z,359
2022-09-25T06:18:08.619Z,361
2022-09-25T06:19:08.549Z,368
2022-09-25T06:20:13.519Z,363
2022-09-25T06:22:08.679Z,351
2022-09-25T06:23:08.780Z,344
2022-09-25T06:24:08.073Z,350
2022-09-25T06:25:08.734Z,356
2022-09-25T06:26:08.952Z,355
2022-09-25T06:27:09.321Z,358
2022-09-25T06:28:08.781Z,349
2022-09-25T06:29:08.907Z,350
2022-09-25T06:30:08.638Z,344
2022-09-25T06:31:09.348Z,353
2022-09-25T06:32:09.088Z,349
2022-09-25T06:33:08.305Z,347
2022-09-25T06:34:08.678Z,356
2022-09-25T06:35:08.931Z,350
2022-09-25T06:36:08.173Z,339
2022-09-25T06:37:08.033Z,349
2022-09-25T06:38:08.420Z,347
2022-09-25T06:39:08.294Z,361
2022-09-25T06:40:08.605Z,374
2022-09-25T06:41:10.095Z,357
2022-09-25T06:42:10.042Z,358
2022-09-25T06:43:08.701Z,354
2022-09-25T06:44:08.826Z,352
2022-09-25T06:45:08.399Z,355
2022-09-25T06:46:08.833Z,356
2022-09-25T06:47:09.286Z,359
2022-09-25T06:48:08.702Z,360
2022-09-25T06:49:08.679Z,350
2022-09-25T06:50:09.181Z,345
2022-09-25T06:51:08.464Z,342
2022-09-25T06:52:08.445Z,347
2022-09-25T06:53:08.296Z,351
2022-09-25T06:54:08.505Z,348
2022-09-25T06:56:08.394Z,350
2022-09-25T06:57:08.657Z,344
2022-09-25T06:58:08.967Z,350
2022-09-25T06:59:08.130Z,356
2022-09-25T07:00:09.027Z,354
2022-09-25T07:02:08.670Z,350
2022-09-25T07:03:08.535Z,348
2022-09-25T07:04:08.887Z,351
2022-09-25T07:05:08.455Z,364
2022-09-25T07:06:08.805Z,358
2022-09-25T07:07:09.167Z,363
2022-09-25T07:08:09.019Z,358
2022-09-25T07:09:08.910Z,350
2022-09-25T07:10:09.160Z,354
2022-09-25T07:11:09.192Z,356
2022-09-25T07:12:08.862Z,364
2022-09-25T07:14:08.493Z,362
2022-09-25T07:15:14.119Z,350
2022-09-25T07:17:14.595Z,347
2022-09-25T07:18:09.168Z,343
2022-09-25T07:19:08.231Z,349
2022-09-25T07:20:08.771Z,351
2022-09-25T07:21:09.183Z,341
2022-09-25T07:22:08.637Z,344
2022-09-25T07:23:09.384Z,340
2022-09-25T07:24:09.235Z,343
2022-09-25T07:25:09.436Z,363
2022-09-25T07:26:08.868Z,369
2022-09-25T07:27:09.226Z,352
2022-09-25T07:28:08.766Z,349
2022-09-25T07:29:09.295Z,346
2022-09-25T07:30:09.142Z,327
2022-09-25T07:31:09.117Z,359
2022-09-25T07:32:09.055Z,346
2022-09-25T07:33:08.599Z,343
2022-09-25T07:34:09.017Z,354
2022-09-25T07:35:08.733Z,366
2022-09-25T07:36:09.130Z,367
2022-09-25T07:37:08.473Z,352
2022-09-25T07:38:08.893Z,351
2022-09-25T07:39:08.270Z,349
2022-09-25T07:40:08.730Z,340
2022-09-25T07:41:08.290Z,337
2022-09-25T07:42:08.693Z,346
2022-09-25T07:43:08.940Z,357
2022-09-25T07:44:28.029Z,358
2022-09-25T07:45:09.321Z,350
2022-09-25T07:46:08.727Z,356
2022-09-25T07:47:08.919Z,355
2022-09-25T07:48:08.355Z,356
2022-09-25T07:50:12.036Z,348
2022-09-25T07:51:09.182Z,353
2022-09-25T07:52:09.229Z,357
2022-09-25T07:53:27.882Z,360
2022-09-25T07:54:08.620Z,354
2022-09-25T07:55:09.384Z,348
2022-09-25T07:56:09.389Z,347
2022-09-25T07:57:09.142Z,345
2022-09-25T07:58:08.845Z,347
2022-09-25T07:59:09.137Z,356
2022-09-25T08:00:09.364Z,345
2022-09-25T08:01:30.614Z,333
2022-09-25T08:02:08.723Z,339
2022-09-25T08:03:09.283Z,355
2022-09-25T08:04:08.782Z,363
2022-09-25T08:05:08.714Z,361
2022-09-25T08:07:08.885Z,347
2022-09-25T08:08:08.503Z,336
2022-09-25T08:09:10.782Z,354
2022-09-25T08:10:08.574Z,342
2022-09-25T08:11:08.927Z,344
2022-09-25T08:12:09.196Z,345
2022-09-25T08:13:08.631Z,342
2022-09-25T08:14:08.758Z,353
2022-09-25T08:17:09.035Z,356
2022-09-25T08:18:08.526Z,360
2022-09-25T08:19:08.862Z,351
2022-09-25T08:20:08.472Z,347
2022-09-25T08:21:09.190Z,349
2022-09-25T08:22:08.835Z,353
2022-09-25T08:23:08.555Z,349
2022-09-25T08:24:09.016Z,347
2022-09-25T08:25:08.539Z,342
2022-09-25T08:26:09.238Z,343
2022-09-25T08:27:08.850Z,348
2022-09-25T08:28:08.576Z,371
2022-09-25T08:29:08.942Z,342
2022-09-25T08:31:09.162Z,347
2022-09-25T08:32:08.517Z,350
2022-09-25T08:33:11.998Z,360
2022-09-25T08:34:35.800Z,362
2022-09-25T08:35:09.074Z,361
2022-09-25T08:36:08.751Z,355
2022-09-25T08:37:09.217Z,356
2022-09-25T08:38:08.852Z,359
2022-09-25T08:39:08.934Z,341
2022-09-25T08:40:08.735Z,342
2022-09-25T08:41:09.083Z,356
2022-09-25T08:42:09.053Z,358
2022-09-25T08:43:08.555Z,361
2022-09-25T08:44:08.852Z,347
2022-09-25T08:45:20.484Z,353
2022-09-25T08:46:08.857Z,333
2022-09-25T08:47:08.732Z,366
2022-09-25T08:48:08.611Z,338
2022-09-25T08:49:09.027Z,340
2022-09-25T08:50:08.667Z,344
2022-09-25T08:51:08.619Z,342
2022-09-25T08:52:08.907Z,344
2022-09-25T08:53:08.457Z,356
2022-09-25T08:54:08.695Z,354
2022-09-25T08:55:09.525Z,342
2022-09-25T08:56:08.501Z,337
2022-09-25T08:57:09.148Z,343
2022-09-25T08:58:08.624Z,347
2022-09-25T08:59:09.273Z,350
2022-09-25T09:01:08.556Z,352
2022-09-25T09:02:09.202Z,346
2022-09-25T09:03:09.383Z,338
2022-09-25T09:04:09.234Z,344
2022-09-25T09:05:08.740Z,360
2022-09-25T09:06:09.168Z,358
2022-09-25T09:07:26.223Z,349
2022-09-25T09:08:08.444Z,336
2022-09-25T09:09:09.098Z,330
2022-09-25T09:10:09.285Z,331
2022-09-25T09:11:13.301Z,332
2022-09-25T09:12:09.025Z,342
2022-09-25T09:13:08.442Z,350
2022-09-25T09:14:08.930Z,347
2022-09-25T09:15:08.427Z,348
2022-09-25T09:17:09.432Z,349
2022-09-25T09:18:09.178Z,343
2022-09-25T09:19:08.508Z,338
2022-09-25T09:20:09.253Z,345
2022-09-25T09:21:09.010Z,342
2022-09-25T09:22:08.804Z,347
2022-09-25T09:23:13.398Z,337
2022-09-25T09:24:09.192Z,358
2022-09-25T09:25:09.167Z,334
2022-09-25T09:26:08.600Z,345
2022-09-25T09:27:09.091Z,340
2022-09-25T09:28:08.956Z,336
2022-09-25T09:29:08.403Z,339
2022-09-25T09:30:09.245Z,348
2022-09-25T09:31:09.350Z,343
2022-09-25T09:32:08.462Z,345
2022-09-25T09:34:08.669Z,330
2022-09-25T09:35:08.940Z,339
2022-09-25T09:36:08.885Z,345
2022-09-25T09:38:14.219Z,337
2022-09-25T09:39:08.923Z,336
2022-09-25T09:40:08.812Z,342
2022-09-25T09:41:09.363Z,339
2022-09-25T09:42:09.022Z,329
2022-09-25T09:43:08.679Z,359
2022-09-25T09:44:09.705Z,336
2022-09-25T09:45:09.159Z,350
2022-09-25T09:46:08.647Z,341
2022-09-25T09:47:09.086Z,325
2022-09-25T09:48:08.911Z,329
2022-09-25T09:49:08.599Z,333
2022-09-25T09:50:09.193Z,335
2022-09-25T09:51:09.104Z,337
2022-09-25T09:52:08.965Z,344
2022-09-25T09:53:08.985Z,346
2022-09-25T09:54:09.021Z,340
2022-09-25T09:55:08.897Z,342
2022-09-25T09:56:09.416Z,340
2022-09-25T09:57:09.299Z,341
2022-09-25T09:58:09.167Z,339
2022-09-25T09:59:09.313Z,344
2022-09-25T10:00:09.676Z,347
2022-09-25T10:01:28.977Z,331
2022-09-25T10:02:08.751Z,341
2022-09-25T10:03:08.472Z,338
2022-09-25T10:04:08.888Z,345
2022-09-25T10:05:08.981Z,350
2022-09-25T10:06:09.171Z,342
2022-09-25T10:07:08.752Z,336
2022-09-25T10:08:09.110Z,335
2022-09-25T10:09:09.295Z,344
2022-09-25T10:10:09.222Z,355
2022-09-25T10:11:08.975Z,354
2022-09-25T10:12:08.967Z,345
2022-09-25T10:14:09.328Z,343
2022-09-25T10:16:09.656Z,345
2022-09-25T10:18:09.452Z,332
2022-09-25T10:19:09.259Z,358
2022-09-25T10:20:09.454Z,332
2022-09-25T10:21:08.810Z,336
2022-09-25T10:22:08.691Z,337
2022-09-25T10:24:08.907Z,340
2022-09-25T10:25:08.878Z,350
2022-09-25T10:26:08.954Z,364
2022-09-25T10:27:09.119Z,357
2022-09-25T10:28:09.289Z,340
2022-09-25T10:29:09.066Z,343
2022-09-25T10:30:09.380Z,341
2022-09-25T10:31:08.918Z,340
2022-09-25T10:32:08.824Z,329
2022-09-25T10:33:09.081Z,335
2022-09-25T10:34:09.179Z,339
2022-09-25T10:35:09.268Z,328
2022-09-25T10:36:08.669Z,338
2022-09-25T10:37:09.054Z,333
2022-09-25T10:38:08.652Z,317
2022-09-25T10:39:39.657Z,315
2022-09-25T10:41:09.399Z,321
2022-09-25T10:42:09.082Z,336
2022-09-25T10:43:08.674Z,337
2022-09-25T10:44:09.543Z,339
2022-09-25T10:46:09.559Z,351
2022-09-25T10:47:09.530Z,345
2022-09-25T10:48:09.892Z,332
2022-09-25T10:49:09.548Z,328
2022-09-25T10:50:08.979Z,341
2022-09-25T10:51:09.072Z,337
2022-09-25T10:52:09.099Z,342
2022-09-25T10:53:09.077Z,341
2022-09-25T10:54:09.109Z,340
2022-09-25T10:55:09.432Z,358
2022-09-25T10:56:09.738Z,342
2022-09-25T10:57:09.002Z,340
2022-09-25T10:58:09.023Z,341
2022-09-25T10:59:08.627Z,345
2022-09-25T11:00:10.041Z,339
2022-09-25T11:01:09.587Z,327
2022-09-25T11:02:08.861Z,339
2022-09-25T11:03:14.755Z,341
2022-09-25T11:04:09.446Z,335
2022-09-25T11:05:09.474Z,334
2022-09-25T11:06:08.786Z,323
2022-09-25T11:07:09.414Z,336
2022-09-25T11:08:09.049Z,338
2022-09-25T11:09:09.538Z,337
2022-09-25T11:10:09.014Z,334
2022-09-25T11:11:09.013Z,333
2022-09-25T11:12:08.840Z,345
2022-09-25T11:13:08.527Z,342
2022-09-25T11:14:09.132Z,352
2022-09-25T11:15:09.016Z,344
2022-09-25T11:16:08.826Z,338
2022-09-25T11:17:08.941Z,332
2022-09-25T11:18:09.005Z,328
2022-09-25T11:19:09.103Z,329
2022-09-25T11:20:09.344Z,348
2022-09-25T11:21:09.206Z,345
2022-09-25T11:22:09.256Z,341
2022-09-25T11:23:09.455Z,347
2022-09-25T11:24:08.859Z,352
2022-09-25T11:25:08.808Z,334
2022-09-25T11:26:09.569Z,331
2022-09-25T11:27:08.965Z,339
2022-09-25T11:29:09.616Z,345
2022-09-25T11:30:09.207Z,352
2022-09-25T11:31:09.213Z,342
2022-09-25T11:32:09.148Z,322
2022-09-25T11:33:09.316Z,336
2022-09-25T11:34:08.975Z,331
2022-09-25T11:35:08.973Z,333
2022-09-25T11:36:08.812Z,339
2022-09-25T11:37:09.977Z,349
2022-09-25T11:38:09.825Z,351
2022-09-25T11:39:08.778Z,348
2022-09-25T11:40:08.773Z,343
2022-09-25T11:41:08.685Z,337
2022-09-25T11:42:08.977Z,346
2022-09-25T11:43:08.650Z,349
2022-09-25T11:44:09.755Z,338
2022-09-25T11:45:09.258Z,347
2022-09-25T11:46:09.228Z,354
2022-09-25T11:47:08.740Z,352
2022-09-25T11:48:08.447Z,343
2022-09-25T11:49:12.222Z,341
2022-09-25T11:50:09.213Z,349
2022-09-25T11:51:09.353Z,338
2022-09-25T11:52:09.294Z,337
2022-09-25T11:53:09.082Z,341
2022-09-25T11:54:32.674Z,340
2022-09-25T11:55:09.006Z,331
2022-09-25T11:56:08.775Z,341
2022-09-25T11:57:08.138Z,339
2022-09-25T11:58:08.590Z,332
2022-09-25T12:00:08.815Z,330
2022-09-25T12:01:08.907Z,334
2022-09-25T12:02:08.528Z,340
2022-09-25T12:03:09.027Z,341
2022-09-25T12:04:08.546Z,335
2022-09-25T12:05:09.118Z,331
2022-09-25T12:06:08.714Z,328
2022-09-25T12:07:08.506Z,335
2022-09-25T12:08:08.456Z,317
2022-09-25T12:09:08.415Z,326
2022-09-25T12:10:09.040Z,339
2022-09-25T12:11:08.649Z,334
2022-09-25T12:12:09.418Z,338
2022-09-25T12:13:09.017Z,335
2022-09-25T12:14:08.559Z,336
2022-09-25T12:15:09.144Z,340
2022-09-25T12:16:08.846Z,342
2022-09-25T12:17:08.332Z,350
2022-09-25T12:18:08.657Z,351
2022-09-25T12:19:08.716Z,346
2022-09-25T12:20:08.964Z,342
2022-09-25T12:22:08.186Z,353
2022-09-25T12:23:08.865Z,346
2022-09-25T12:24:08.366Z,334
2022-09-25T12:25:22.556Z,348
2022-09-25T12:26:08.838Z,354
2022-09-25T12:27:22.546Z,358
2022-09-25T12:28:08.631Z,355
2022-09-25T12:29:08.153Z,358
2022-09-25T12:30:09.048Z,350
2022-09-25T12:31:08.204Z,351
2022-09-25T12:32:08.443Z,346
2022-09-25T12:33:08.760Z,344
2022-09-25T12:34:08.885Z,336
2022-09-25T12:35:08.879Z,339
2022-09-25T12:36:07.737Z,346
2022-09-25T12:37:08.697Z,348
2022-09-25T12:38:08.509Z,339
2022-09-25T12:39:08.488Z,344
2022-09-25T12:40:08.466Z,335
2022-09-25T12:41:08.428Z,334
2022-09-25T12:42:08.547Z,336
2022-09-25T12:43:08.375Z,333
2022-09-25T12:44:08.206Z,346
2022-09-25T12:45:08.329Z,338
2022-09-25T12:46:08.748Z,333
2022-09-25T12:47:08.356Z,346
2022-09-25T12:48:08.539Z,347
2022-09-25T12:49:07.882Z,348
2022-09-25T12:50:08.407Z,350
2022-09-25T12:51:08.135Z,351
2022-09-25T12:52:08.711Z,342
2022-09-25T12:53:08.219Z,333
2022-09-25T12:54:08.239Z,348
2022-09-25T12:55:08.439Z,350
2022-09-25T12:56:08.561Z,342
2022-09-25T12:57:08.186Z,344
2022-09-25T12:58:08.868Z,354
2022-09-25T12:59:08.799Z,337
2022-09-25T13:00:09.344Z,379
2022-09-25T13:01:08.029Z,334
2022-09-25T13:02:08.032Z,347
2022-09-25T13:03:07.949Z,354
2022-09-25T13:04:08.821Z,348
2022-09-25T13:05:08.804Z,349
2022-09-25T13:06:08.649Z,351
2022-09-25T13:07:08.239Z,338
2022-09-25T13:08:08.258Z,333
2022-09-25T13:09:08.374Z,342
2022-09-25T13:10:08.434Z,341
2022-09-25T13:11:08.488Z,336
2022-09-25T13:13:12.838Z,335
2022-09-25T13:14:08.235Z,336
2022-09-25T13:16:08.754Z,323
2022-09-25T13:17:08.385Z,372
2022-09-25T13:18:08.230Z,316
2022-09-25T13:19:07.781Z,315
2022-09-25T13:20:08.551Z,324
2022-09-25T13:21:08.081Z,332
2022-09-25T13:23:08.681Z,337
2022-09-25T13:24:08.628Z,333
2022-09-25T13:25:08.231Z,331
2022-09-25T13:26:07.664Z,334
2022-09-25T13:27:08.007Z,331
2022-09-25T13:28:08.606Z,327
2022-09-25T13:29:08.119Z,334
2022-09-25T13:30:09.120Z,332
2022-09-25T13:31:09.240Z,328
2022-09-25T13:32:08.686Z,326
2022-09-25T13:33:08.719Z,330
2022-09-25T13:34:08.121Z,334
2022-09-25T13:35:08.486Z,317
2022-09-25T13:36:07.786Z,309
2022-09-25T13:37:08.431Z,322
2022-09-25T13:38:08.300Z,329
2022-09-25T13:39:08.731Z,325
2022-09-25T13:40:08.224Z,323
2022-09-25T13:41:08.403Z,332
2022-09-25T13:42:07.974Z,341
2022-09-25T13:43:08.463Z,346
2022-09-25T13:44:08.400Z,331
2022-09-25T13:45:08.674Z,325
2022-09-25T13:46:08.659Z,332
2022-09-25T13:47:08.182Z,349
2022-09-25T13:48:08.190Z,345
2022-09-25T13:49:08.749Z,342
2022-09-25T13:50:08.451Z,343
2022-09-25T13:51:08.170Z,342
2022-09-25T13:52:08.654Z,315
2022-09-25T13:53:08.218Z,313
2022-09-25T13:54:07.465Z,322
2022-09-25T13:55:08.002Z,333
2022-09-25T13:56:07.817Z,328
2022-09-25T13:57:08.183Z,336
2022-09-25T13:58:08.523Z,342
2022-09-25T13:59:08.216Z,348
2022-09-25T14:00:08.524Z,338
2022-09-25T14:01:08.454Z,329
2022-09-25T14:02:08.020Z,323
2022-09-25T14:03:08.522Z,324
2022-09-25T14:04:08.283Z,334
2022-09-25T14:05:08.066Z,338
2022-09-25T14:06:07.815Z,345
2022-09-25T14:07:08.258Z,329
2022-09-25T14:08:07.921Z,354
2022-09-25T14:09:08.723Z,319
2022-09-25T14:10:09.014Z,321
2022-09-25T14:11:08.883Z,328
2022-09-25T14:12:07.973Z,321
2022-09-25T14:13:08.657Z,331
2022-09-25T14:14:08.566Z,332
2022-09-25T14:15:08.442Z,330
2022-09-25T14:16:08.326Z,331
2022-09-25T14:17:07.750Z,333
2022-09-25T14:18:08.475Z,337
2022-09-25T14:19:08.112Z,331
2022-09-25T14:20:07.711Z,329
2022-09-25T14:21:08.344Z,325
2022-09-25T14:23:08.044Z,328
2022-09-25T14:24:08.123Z,336
2022-09-25T14:25:08.865Z,337
2022-09-25T14:26:08.807Z,326
2022-09-25T14:28:08.188Z,321
2022-09-25T14:29:08.692Z,315
2022-09-25T14:30:08.756Z,312
2022-09-25T14:31:08.669Z,318
2022-09-25T14:32:08.728Z,312
2022-09-25T14:33:07.920Z,322
2022-09-25T14:34:07.998Z,331
2022-09-25T14:35:08.754Z,330
2022-09-25T14:36:08.156Z,328
2022-09-25T14:37:08.710Z,334
2022-09-25T14:38:08.411Z,330
2022-09-25T14:39:08.155Z,326
2022-09-25T14:40:08.936Z,327